Time;durP1;ratioP1;P1;durP2;ratioP2;P2;SDS_P1;SDS_P2;PMS_P1;PMS_P2;Temp;Humidity;BMP_temperature;BMP_pressure;BME280_temperature;BME280_humidity;BME280_pressure;Samples;Min_cycle;Max_cycle;Signal;HPM_P1;HPM_P2
2023/07/01 00:00:15;;;;;;;5.20;1.90;;;;;;;;;;4934583;29;20448;-87
2023/07/01 00:02:41;;;;;;;1.92;1.70;;;;;;;;;;4945213;29;20486;-87
2023/07/01 00:05:09;;;;;;;2.75;2.10;;;;;;;;;;4921622;29;20059;-87
2023/07/01 00:07:35;;;;;;;4.20;1.90;;;;;;;;;;4920032;29;20023;-87
2023/07/01 00:10:01;;;;;;;3.70;2.15;;;;;;;;;;4925992;29;20091;-87
2023/07/01 00:12:26;;;;;;;2.50;1.83;;;;;;;;;;4945204;28;20502;-87
2023/07/01 00:14:52;;;;;;;2.58;1.63;;;;;;;;;;4923828;29;20052;-87
2023/07/01 00:17:18;;;;;;;3.80;1.75;;;;;;;;;;4919259;29;20027;-87
2023/07/01 00:19:43;;;;;;;4.25;1.98;;;;;;;;;;4936283;29;20032;-86
2023/07/01 00:22:09;;;;;;;2.30;1.85;;;;;;;;;;4934816;29;20040;-87
2023/07/01 00:24:34;;;;;;;4.18;1.85;;;;;;;;;;4942962;28;20031;-87
2023/07/01 00:27:00;;;;;;;3.72;2.20;;;;;;;;;;4941665;29;20068;-87
2023/07/01 00:29:25;;;;;;;5.18;1.90;;;;;;;;;;4919503;29;20058;-87
2023/07/01 00:31:50;;;;;;;4.07;1.67;;;;;;;;;;4931577;29;20430;-87
2023/07/01 00:34:16;;;;;;;4.90;1.85;;;;;;;;;;4955355;29;20098;-87
2023/07/01 00:36:53;;;;;;;3.63;1.88;;;;;;;;;;4937805;29;20260;-87
2023/07/01 00:39:19;;;;;;;1.55;1.42;;;;;;;;;;4930933;29;20059;-87
2023/07/01 00:41:51;;;;;;;4.32;1.90;;;;;;;;;;4933347;29;20023;-87
2023/07/01 00:44:17;;;;;;;2.40;1.90;;;;;;;;;;4943942;29;20114;-88
2023/07/01 00:46:42;;;;;;;2.35;1.80;;;;;;;;;;4918476;29;20122;-87
2023/07/01 00:49:07;;;;;;;2.70;1.98;;;;;;;;;;4945776;29;20062;-87
2023/07/01 00:51:33;;;;;;;3.13;1.70;;;;;;;;;;4938750;29;20078;-85
2023/07/01 00:53:58;;;;;;;3.00;1.90;;;;;;;;;;4941634;29;20023;-87
2023/07/01 00:56:24;;;;;;;3.13;1.58;;;;;;;;;;4944699;29;20027;-87
2023/07/01 00:58:49;;;;;;;2.50;1.70;;;;;;;;;;4942146;29;20019;-87
2023/07/01 01:01:19;;;;;;;3.42;1.88;;;;;;;;;;4938939;29;20030;-87
2023/07/01 01:03:53;;;;;;;2.63;1.80;;;;;;;;;;4953808;29;20046;-87
2023/07/01 01:06:21;;;;;;;2.03;1.80;;;;;;;;;;4945503;28;20036;-87
2023/07/01 01:09:10;;;;;;;2.75;1.90;;;;;;;;;;4944412;29;20103;-87
2023/07/01 01:11:39;;;;;;;2.13;1.80;;;;;;;;;;4930925;29;20035;-86
2023/07/01 01:14:08;;;;;;;2.25;1.67;;;;;;;;;;4950190;29;20061;-87
2023/07/01 01:16:34;;;;;;;3.00;1.75;;;;;;;;;;4940075;29;20028;-86
2023/07/01 01:19:04;;;;;;;3.20;1.63;;;;;;;;;;4925128;29;20102;-86
2023/07/01 01:21:29;;;;;;;5.18;2.20;;;;;;;;;;4949805;29;20084;-86
2023/07/01 01:24:05;;;;;;;3.65;1.80;;;;;;;;;;4932185;29;20051;-86
2023/07/01 01:26:37;;;;;;;2.53;1.77;;;;;;;;;;4947474;29;20095;-86
2023/07/01 01:29:06;;;;;;;2.28;1.63;;;;;;;;;;4949787;29;20039;-85
2023/07/01 01:31:31;;;;;;;3.47;1.73;;;;;;;;;;4934734;29;20086;-86
2023/07/01 01:33:57;;;;;;;2.92;2.42;;;;;;;;;;4926628;29;20098;-86
2023/07/01 01:36:37;;;;;;;2.33;1.80;;;;;;;;;;4923249;29;20024;-86
2023/07/01 01:39:05;;;;;;;2.30;2.00;;;;;;;;;;4934167;29;20122;-86
2023/07/01 01:41:54;;;;;;;2.10;1.70;;;;;;;;;;4929416;29;20132;-87
2023/07/01 01:44:35;;;;;;;3.65;1.67;;;;;;;;;;4938182;28;20387;-85
2023/07/01 01:47:02;;;;;;;2.67;1.80;;;;;;;;;;4938211;29;20177;-86
2023/07/01 01:49:28;;;;;;;3.30;1.60;;;;;;;;;;4950715;29;20086;-86
2023/07/01 01:51:55;;;;;;;2.22;1.70;;;;;;;;;;4940735;29;20077;-86
2023/07/01 01:54:21;;;;;;;2.95;1.80;;;;;;;;;;4938797;29;20050;-86
2023/07/01 01:56:46;;;;;;;2.63;1.90;;;;;;;;;;4921282;29;20024;-86
2023/07/01 01:59:12;;;;;;;3.72;1.95;;;;;;;;;;4941141;29;20027;-85
2023/07/01 02:01:38;;;;;;;4.10;1.90;;;;;;;;;;4929547;29;20077;-85
2023/07/01 02:04:04;;;;;;;1.98;1.70;;;;;;;;;;4949558;28;20027;-85
2023/07/01 02:06:30;;;;;;;2.25;1.67;;;;;;;;;;4944241;29;20058;-85
2023/07/01 02:09:03;;;;;;;3.03;1.90;;;;;;;;;;4945530;29;20031;-85
2023/07/01 02:11:29;;;;;;;3.80;2.15;;;;;;;;;;4935765;29;20031;-85
2023/07/01 02:13:54;;;;;;;3.10;1.98;;;;;;;;;;4927894;29;20023;-85
2023/07/01 02:16:20;;;;;;;2.20;1.90;;;;;;;;;;4943694;29;20110;-85
2023/07/01 02:18:45;;;;;;;2.45;1.88;;;;;;;;;;4924944;29;20047;-86
2023/07/01 02:21:10;;;;;;;3.65;1.80;;;;;;;;;;4931917;29;20065;-86
2023/07/01 02:23:36;;;;;;;3.50;1.90;;;;;;;;;;4952215;29;20047;-86
2023/07/01 02:26:01;;;;;;;4.35;1.95;;;;;;;;;;4940716;29;20039;-86
2023/07/01 02:28:26;;;;;;;2.42;1.70;;;;;;;;;;4940584;29;20031;-86
2023/07/01 02:30:53;;;;;;;4.22;1.92;;;;;;;;;;4941753;29;20027;-85
2023/07/01 02:33:18;;;;;;;2.53;1.80;;;;;;;;;;4952474;29;20141;-87
2023/07/01 02:35:43;;;;;;;2.75;1.60;;;;;;;;;;4949493;28;20047;-86
2023/07/01 02:38:09;;;;;;;3.33;1.90;;;;;;;;;;4940731;29;20027;-85
2023/07/01 02:40:35;;;;;;;5.03;1.98;;;;;;;;;;4931714;29;20046;-86
2023/07/01 02:43:01;;;;;;;8.50;2.15;;;;;;;;;;4923751;29;20062;-85
2023/07/01 02:45:26;;;;;;;2.20;2.00;;;;;;;;;;4940356;29;20378;-86
2023/07/01 02:48:33;;;;;;;2.00;1.77;;;;;;;;;;4955636;29;20011;-87
2023/07/01 02:50:58;;;;;;;2.50;1.98;;;;;;;;;;4953044;29;20099;-86
2023/07/01 02:53:23;;;;;;;4.93;1.88;;;;;;;;;;4947106;29;20570;-86
2023/07/01 02:55:49;;;;;;;6.15;1.75;;;;;;;;;;4935138;29;20020;-86
2023/07/01 02:58:14;;;;;;;2.55;1.70;;;;;;;;;;4925479;29;20066;-85
2023/07/01 03:00:39;;;;;;;2.13;1.90;;;;;;;;;;4926248;29;20023;-86
2023/07/01 03:03:20;;;;;;;2.22;2.00;;;;;;;;;;4926448;29;20039;-86
2023/07/01 03:05:46;;;;;;;2.13;1.70;;;;;;;;;;4924568;29;20082;-85
2023/07/01 03:08:11;;;;;;;3.33;2.22;;;;;;;;;;4925462;29;20020;-86
2023/07/01 03:10:36;;;;;;;4.35;1.83;;;;;;;;;;4936625;29;20035;-86
2023/07/01 03:13:02;;;;;;;3.67;2.20;;;;;;;;;;4929870;29;20027;-86
2023/07/01 03:15:28;;;;;;;3.60;2.00;;;;;;;;;;4927089;29;20036;-86
2023/07/01 03:17:53;;;;;;;5.53;2.00;;;;;;;;;;4924383;29;20028;-86
2023/07/01 03:20:24;;;;;;;2.85;1.95;;;;;;;;;;4926945;29;20080;-85
2023/07/01 03:22:56;;;;;;;5.85;2.17;;;;;;;;;;4922810;29;20035;-86
2023/07/01 03:25:22;;;;;;;6.10;2.28;;;;;;;;;;4921782;29;20103;-86
2023/07/01 03:27:47;;;;;;;2.97;2.00;;;;;;;;;;4938171;29;20474;-85
2023/07/01 03:30:16;;;;;;;2.35;1.92;;;;;;;;;;4939793;29;20027;-86
2023/07/01 03:32:45;;;;;;;3.47;1.83;;;;;;;;;;4920954;29;20050;-86
2023/07/01 03:35:12;;;;;;;2.47;2.10;;;;;;;;;;4937817;29;20054;-85
2023/07/01 03:37:38;;;;;;;2.30;1.80;;;;;;;;;;4936207;29;20032;-86
2023/07/01 03:40:05;;;;;;;3.42;2.50;;;;;;;;;;4920761;29;20367;-86
2023/07/01 03:42:31;;;;;;;2.85;2.05;;;;;;;;;;4942580;29;20027;-86
2023/07/01 03:44:56;;;;;;;2.30;2.08;;;;;;;;;;4955531;29;20047;-85
2023/07/01 03:47:22;;;;;;;2.97;2.33;;;;;;;;;;4943911;29;20157;-85
2023/07/01 03:49:48;;;;;;;5.45;2.10;;;;;;;;;;4926184;29;20027;-86
2023/07/01 03:52:14;;;;;;;2.53;2.22;;;;;;;;;;4943840;29;20039;-86
2023/07/01 03:54:39;;;;;;;5.82;2.30;;;;;;;;;;4944292;29;20568;-85
2023/07/01 03:57:04;;;;;;;3.80;2.03;;;;;;;;;;4926886;29;20087;-85
2023/07/01 03:59:30;;;;;;;5.25;2.20;;;;;;;;;;4931164;29;20146;-85
2023/07/01 04:01:55;;;;;;;2.63;2.13;;;;;;;;;;4941624;29;20058;-85
2023/07/01 04:04:20;;;;;;;3.58;1.92;;;;;;;;;;4940209;29;20047;-85
2023/07/01 04:06:46;;;;;;;5.65;2.28;;;;;;;;;;4928330;29;20027;-86
2023/07/01 04:09:12;;;;;;;3.35;2.30;;;;;;;;;;4945678;29;20461;-86
2023/07/01 04:11:41;;;;;;;6.57;2.50;;;;;;;;;;4927497;29;20023;-87
2023/07/01 04:14:06;;;;;;;1.92;1.65;;;;;;;;;;4943372;29;20032;-86
2023/07/01 04:16:32;;;;;;;4.22;2.17;;;;;;;;;;4943434;29;20150;-86
2023/07/01 04:18:59;;;;;;;4.60;2.00;;;;;;;;;;4925726;29;20119;-87
2023/07/01 04:21:25;;;;;;;2.15;1.85;;;;;;;;;;4939467;29;20024;-86
2023/07/01 04:23:50;;;;;;;2.47;2.20;;;;;;;;;;4923143;29;20038;-86
2023/07/01 04:26:15;;;;;;;4.25;2.22;;;;;;;;;;4939678;28;20114;-86
2023/07/01 04:28:41;;;;;;;14.60;2.33;;;;;;;;;;4923757;29;20047;-86
2023/07/01 04:31:06;;;;;;;4.93;2.22;;;;;;;;;;4940523;29;20043;-86
2023/07/01 04:33:32;;;;;;;3.00;2.10;;;;;;;;;;4940482;29;20038;-85
2023/07/01 04:35:57;;;;;;;3.17;2.08;;;;;;;;;;4923249;29;20027;-86
2023/07/01 04:38:22;;;;;;;3.67;2.28;;;;;;;;;;4940414;29;20461;-85
2023/07/01 04:40:48;;;;;;;2.47;2.05;;;;;;;;;;4940558;29;20043;-85
2023/07/01 04:43:13;;;;;;;2.35;1.95;;;;;;;;;;4924428;29;20034;-85
2023/07/01 04:45:41;;;;;;;3.53;2.17;;;;;;;;;;4942604;29;20866;-85
2023/07/01 04:48:07;;;;;;;2.67;1.98;;;;;;;;;;4947776;29;20393;-85
2023/07/01 04:50:32;;;;;;;4.35;2.35;;;;;;;;;;4946542;29;20482;-85
2023/07/01 04:52:57;;;;;;;3.28;2.05;;;;;;;;;;4928825;29;20035;-85
2023/07/01 04:55:23;;;;;;;5.18;2.40;;;;;;;;;;4926111;29;20054;-86
2023/07/01 04:57:48;;;;;;;2.88;2.30;;;;;;;;;;4924575;29;20024;-85
2023/07/01 05:00:14;;;;;;;2.45;1.98;;;;;;;;;;4907522;29;20031;-86
2023/07/01 05:02:39;;;;;;;4.15;2.03;;;;;;;;;;4925198;29;20050;-85
2023/07/01 05:05:05;;;;;;;2.70;2.00;;;;;;;;;;4945060;29;20043;-86
2023/07/01 05:07:31;;;;;;;3.67;1.95;;;;;;;;;;4945938;29;20028;-86
2023/07/01 05:09:56;;;;;;;4.50;1.90;;;;;;;;;;4945591;29;20199;-85
2023/07/01 05:12:21;;;;;;;3.40;2.00;;;;;;;;;;4929031;29;20034;-85
2023/07/01 05:14:47;;;;;;;2.75;2.08;;;;;;;;;;4929287;29;20051;-86
2023/07/01 05:17:12;;;;;;;4.95;2.30;;;;;;;;;;4933314;29;20046;-85
2023/07/01 05:19:37;;;;;;;2.15;1.63;;;;;;;;;;4936315;29;20118;-85
2023/07/01 05:22:03;;;;;;;3.00;2.08;;;;;;;;;;4931540;29;20043;-85
2023/07/01 05:24:28;;;;;;;2.55;1.90;;;;;;;;;;4945721;29;20051;-86
2023/07/01 05:26:54;;;;;;;2.55;1.75;;;;;;;;;;4944883;29;20016;-85
2023/07/01 05:29:20;;;;;;;2.42;1.90;;;;;;;;;;4946351;29;20034;-86
2023/07/01 05:31:48;;;;;;;2.47;1.80;;;;;;;;;;4951764;29;20103;-85
2023/07/01 05:34:14;;;;;;;3.28;1.70;;;;;;;;;;4944070;29;20515;-85
2023/07/01 05:36:39;;;;;;;2.03;1.70;;;;;;;;;;4946199;29;20055;-85
2023/07/01 05:39:04;;;;;;;4.13;1.67;;;;;;;;;;4925834;29;20431;-85
2023/07/01 05:41:30;;;;;;;2.35;1.90;;;;;;;;;;4926522;29;20036;-85
2023/07/01 05:43:56;;;;;;;3.50;1.45;;;;;;;;;;4926600;29;20023;-85
2023/07/01 05:46:21;;;;;;;4.45;2.35;;;;;;;;;;4945360;29;20098;-86
2023/07/01 05:48:46;;;;;;;8.23;2.15;;;;;;;;;;4927327;29;20504;-85
2023/07/01 05:51:12;;;;;;;3.08;1.70;;;;;;;;;;4945089;29;20031;-85
2023/07/01 05:53:37;;;;;;;2.33;1.73;;;;;;;;;;4944805;29;20027;-85
2023/07/01 05:56:03;;;;;;;2.45;1.58;;;;;;;;;;4949746;29;20028;-86
2023/07/01 05:58:28;;;;;;;3.88;1.35;;;;;;;;;;4924278;29;20118;-86
2023/07/01 06:00:53;;;;;;;2.95;1.70;;;;;;;;;;4941734;29;20061;-85
2023/07/01 06:03:19;;;;;;;3.20;1.90;;;;;;;;;;4937564;29;20043;-85
2023/07/01 06:05:44;;;;;;;3.80;1.92;;;;;;;;;;4926020;29;20027;-86
2023/07/01 06:08:09;;;;;;;1.40;1.30;;;;;;;;;;4942279;29;20032;-85
2023/07/01 06:10:35;;;;;;;3.70;1.70;;;;;;;;;;4942392;29;20111;-86
2023/07/01 06:13:00;;;;;;;1.63;1.52;;;;;;;;;;4941929;29;20188;-85
2023/07/01 06:15:25;;;;;;;5.35;1.80;;;;;;;;;;4943609;29;20028;-86
2023/07/01 06:17:51;;;;;;;4.00;1.63;;;;;;;;;;4942822;29;20059;-88
2023/07/01 06:20:16;;;;;;;4.70;1.75;;;;;;;;;;4921918;29;20027;-86
2023/07/01 06:22:42;;;;;;;3.00;1.42;;;;;;;;;;4946589;29;20036;-86
2023/07/01 06:25:10;;;;;;;2.00;1.45;;;;;;;;;;4946187;29;20054;-86
2023/07/01 06:27:36;;;;;;;3.35;1.63;;;;;;;;;;4928370;29;20047;-87
2023/07/01 06:30:03;;;;;;;1.50;1.23;;;;;;;;;;4947302;29;20032;-86
2023/07/01 06:32:28;;;;;;;4.03;1.70;;;;;;;;;;4928046;29;20063;-87
2023/07/01 06:34:54;;;;;;;2.47;1.85;;;;;;;;;;4941114;29;20020;-87
2023/07/01 06:37:19;;;;;;;2.45;1.48;;;;;;;;;;4941226;29;20020;-88
2023/07/01 06:39:44;;;;;;;3.67;1.88;;;;;;;;;;4939889;29;20058;-86
2023/07/01 06:42:10;;;;;;;2.05;1.45;;;;;;;;;;4941430;29;20470;-86
2023/07/01 06:44:35;;;;;;;5.75;1.38;;;;;;;;;;4943349;29;20023;-85
2023/07/01 06:47:01;;;;;;;6.97;1.63;;;;;;;;;;4927130;29;20039;-87
2023/07/01 06:49:26;;;;;;;3.38;1.67;;;;;;;;;;4949521;28;20032;-88
2023/07/01 06:51:51;;;;;;;3.03;1.65;;;;;;;;;;4926488;29;20028;-86
2023/07/01 06:54:18;;;;;;;3.47;1.38;;;;;;;;;;4944715;29;20050;-86
2023/07/01 06:56:43;;;;;;;2.65;1.20;;;;;;;;;;4931722;29;20028;-86
2023/07/01 06:59:08;;;;;;;3.88;1.50;;;;;;;;;;4949101;29;20058;-86
2023/07/01 07:01:34;;;;;;;1.75;1.17;;;;;;;;;;4942726;29;20023;-86
2023/07/01 07:03:59;;;;;;;6.93;1.42;;;;;;;;;;4939883;29;20045;-87
2023/07/01 07:06:24;;;;;;;2.63;1.23;;;;;;;;;;4942325;29;20028;-87
2023/07/01 07:08:50;;;;;;;4.57;1.35;;;;;;;;;;4949986;29;20031;-87
2023/07/01 07:11:16;;;;;;;2.40;1.70;;;;;;;;;;4924212;29;20470;-87
2023/07/01 07:13:41;;;;;;;1.30;1.13;;;;;;;;;;4927179;29;20032;-87
2023/07/01 07:16:06;;;;;;;4.57;1.45;;;;;;;;;;4926973;29;20030;-87
2023/07/01 07:18:32;;;;;;;2.00;1.02;;;;;;;;;;4939159;29;20042;-89
2023/07/01 07:20:57;;;;;;;3.33;1.40;;;;;;;;;;4945274;29;20079;-90
2023/07/01 07:23:22;;;;;;;2.70;1.50;;;;;;;;;;4949412;29;20034;-87
2023/07/01 07:25:48;;;;;;;1.40;1.23;;;;;;;;;;4938314;29;20024;-87
2023/07/01 07:28:14;;;;;;;2.13;1.35;;;;;;;;;;4926242;29;20490;-87
2023/07/01 07:30:39;;;;;;;3.17;1.38;;;;;;;;;;4945942;29;20027;-87
2023/07/01 07:33:04;;;;;;;2.95;1.20;;;;;;;;;;4934539;29;20091;-87
2023/07/01 07:35:30;;;;;;;1.83;1.40;;;;;;;;;;4923049;29;20028;-88
2023/07/01 07:37:55;;;;;;;3.35;1.58;;;;;;;;;;4940704;29;20035;-87
2023/07/01 07:40:21;;;;;;;4.68;1.33;;;;;;;;;;4940196;29;20026;-86
2023/07/01 07:42:46;;;;;;;1.20;1.10;;;;;;;;;;4920605;29;20035;-86
2023/07/01 07:45:12;;;;;;;1.95;1.27;;;;;;;;;;4938000;29;20092;-88
2023/07/01 07:47:38;;;;;;;3.33;1.70;;;;;;;;;;4923438;29;20023;-88
2023/07/01 07:50:03;;;;;;;3.80;1.55;;;;;;;;;;4944208;29;20031;-88
2023/07/01 07:52:29;;;;;;;1.83;1.23;;;;;;;;;;4944469;29;20024;-87
2023/07/01 07:54:54;;;;;;;4.55;1.30;;;;;;;;;;4934029;29;20132;-87
2023/07/01 07:57:20;;;;;;;2.83;1.42;;;;;;;;;;4921449;29;20027;-87
2023/07/01 07:59:45;;;;;;;3.83;1.10;;;;;;;;;;4937777;29;20035;-88
2023/07/01 08:02:10;;;;;;;7.55;1.48;;;;;;;;;;4920779;29;20038;-87
2023/07/01 08:04:36;;;;;;;1.63;1.50;;;;;;;;;;4920589;29;20046;-88
2023/07/01 08:07:02;;;;;;;3.25;1.30;;;;;;;;;;4920346;29;20032;-88
2023/07/01 08:09:28;;;;;;;4.80;1.35;;;;;;;;;;4934822;29;20154;-88
2023/07/01 08:11:58;;;;;;;3.63;1.45;;;;;;;;;;4918193;29;20056;-89
2023/07/01 08:14:24;;;;;;;1.10;1.10;;;;;;;;;;4931657;29;20047;-87
2023/07/01 08:16:49;;;;;;;5.85;1.30;;;;;;;;;;4940228;29;20024;-87
2023/07/01 08:19:14;;;;;;;1.55;1.35;;;;;;;;;;4938866;29;20087;-88
2023/07/01 08:21:40;;;;;;;2.25;1.35;;;;;;;;;;4957882;28;20027;-88
2023/07/01 08:24:08;;;;;;;2.45;1.50;;;;;;;;;;4932302;29;20370;-85
2023/07/01 08:26:33;;;;;;;9.85;1.70;;;;;;;;;;4940262;29;20028;-85
2023/07/01 08:28:58;;;;;;;5.25;1.50;;;;;;;;;;4929804;29;20024;-86
2023/07/01 08:31:24;;;;;;;2.70;1.42;;;;;;;;;;4919544;29;20106;-86
2023/07/01 08:33:49;;;;;;;2.00;1.38;;;;;;;;;;4916320;29;20032;-87
2023/07/01 08:36:15;;;;;;;3.28;1.38;;;;;;;;;;4922261;29;20031;-85
2023/07/01 08:38:40;;;;;;;1.50;1.40;;;;;;;;;;4927282;29;20035;-87
2023/07/01 08:41:09;;;;;;;1.20;1.17;;;;;;;;;;4923602;29;20469;-86
2023/07/01 08:43:34;;;;;;;2.28;1.63;;;;;;;;;;4948649;29;20031;-87
2023/07/01 08:46:04;;;;;;;2.47;1.60;;;;;;;;;;4934478;29;20035;-86
2023/07/01 08:48:34;;;;;;;5.38;1.67;;;;;;;;;;4930989;29;20036;-88
2023/07/01 08:51:15;;;;;;;1.52;1.35;;;;;;;;;;4937617;29;20394;-86
2023/07/01 08:53:42;;;;;;;5.45;1.33;;;;;;;;;;4933804;29;20027;-87
2023/07/01 08:56:08;;;;;;;2.55;1.40;;;;;;;;;;4934499;29;20030;-87
2023/07/01 08:58:34;;;;;;;5.57;1.38;;;;;;;;;;4938623;29;20099;-87
2023/07/01 09:00:59;;;;;;;2.25;1.33;;;;;;;;;;4933865;29;20032;-89
2023/07/01 09:03:29;;;;;;;1.70;1.20;;;;;;;;;;4935086;29;20035;-87
2023/07/01 09:05:54;;;;;;;1.80;1.70;;;;;;;;;;4952812;29;20031;-86
2023/07/01 09:08:19;;;;;;;3.22;1.33;;;;;;;;;;4942156;29;20036;-87
2023/07/01 09:10:45;;;;;;;5.05;1.45;;;;;;;;;;4934911;29;20032;-86
2023/07/01 09:13:11;;;;;;;1.33;1.20;;;;;;;;;;4935619;29;20023;-86
2023/07/01 09:15:48;;;;;;;3.33;1.30;;;;;;;;;;4935438;29;20024;-86
2023/07/01 09:18:24;;;;;;;3.13;1.50;;;;;;;;;;4938434;29;20023;-86
2023/07/01 09:24:08;;;;;;;2.22;1.60;;;;;;;;;;4938754;29;20083;-85
2023/07/01 09:26:36;;;;;;;1.50;1.20;;;;;;;;;;4937070;29;20035;-87
2023/07/01 09:29:15;;;;;;;1.77;1.30;;;;;;;;;;4915581;29;20043;-86
2023/07/01 09:31:55;;;;;;;2.13;1.60;;;;;;;;;;4954328;28;20043;-86
2023/07/01 09:34:56;;;;;;;2.63;1.60;;;;;;;;;;4935486;28;20602;-86
2023/07/01 09:40:24;;;;;;;1.55;1.25;;;;;;;;;;4931218;29;20036;-87
2023/07/01 09:43:23;;;;;;;1.83;1.70;;;;;;;;;;4937516;29;20027;-86
2023/07/01 09:46:08;;;;;;;;;;;;;;;;;;;;;
2023/07/01 09:49:00;;;;;;;3.65;2.17;;;;;;;;;;4937545;29;20020;-86
2023/07/01 09:51:38;;;;;;;;;;;;;;;;;;;;;
2023/07/01 09:54:37;;;;;;;3.55;1.85;;;;;;;;;;4936008;29;20010;-86
2023/07/01 09:57:16;;;;;;;3.28;1.67;;;;;;;;;;4937626;29;20035;-86
2023/07/01 09:59:45;;;;;;;3.22;2.00;;;;;;;;;;4936812;29;20466;-87
2023/07/01 10:02:10;;;;;;;2.75;2.20;;;;;;;;;;4920737;29;20024;-86
2023/07/01 10:04:36;;;;;;;2.17;1.75;;;;;;;;;;4945370;29;20028;-87
2023/07/01 10:07:03;;;;;;;3.83;2.60;;;;;;;;;;4947546;29;20473;-86
2023/07/01 10:09:29;;;;;;;3.38;2.00;;;;;;;;;;4923426;29;20086;-86
2023/07/01 10:11:58;;;;;;;2.33;1.67;;;;;;;;;;4946898;29;20102;-86
2023/07/01 10:14:26;;;;;;;3.67;2.30;;;;;;;;;;4956762;28;20490;-86
2023/07/01 10:16:52;;;;;;;3.42;2.40;;;;;;;;;;4927833;29;20514;-87
2023/07/01 10:19:27;;;;;;;3.95;2.10;;;;;;;;;;4924778;29;20061;-85
2023/07/01 10:21:53;;;;;;;2.47;1.73;;;;;;;;;;4957133;29;20398;-86
2023/07/01 10:24:37;;;;;;;2.50;2.03;;;;;;;;;;4957445;29;20042;-86
2023/07/01 10:27:03;;;;;;;1.92;1.55;;;;;;;;;;4956796;28;20030;-87
2023/07/01 10:29:29;;;;;;;5.70;1.90;;;;;;;;;;4924993;29;20059;-86
2023/07/01 10:32:09;;;;;;;4.30;1.60;;;;;;;;;;4938319;29;20068;-86
2023/07/01 10:34:53;;;;;;;4.38;2.35;;;;;;;;;;4942613;28;20035;-86
2023/07/01 10:37:56;;;;;;;4.70;2.10;;;;;;;;;;4944110;29;20034;-86
2023/07/01 10:40:33;;;;;;;2.63;1.88;;;;;;;;;;4894625;29;20426;-86
2023/07/01 10:43:40;;;;;;;2.03;1.42;;;;;;;;;;4936870;28;20494;-86
2023/07/01 10:46:23;;;;;;;3.05;1.77;;;;;;;;;;4936539;29;20041;-86
2023/07/01 10:49:04;;;;;;;3.30;1.50;;;;;;;;;;4920221;29;20405;-86
2023/07/01 10:51:45;;;;;;;2.10;1.70;;;;;;;;;;4921185;29;20497;-86
2023/07/01 10:54:10;;;;;;;8.65;2.10;;;;;;;;;;4939751;29;20118;-86
2023/07/01 10:57:01;;;;;;;4.03;1.70;;;;;;;;;;4921422;29;20442;-86
2023/07/01 10:59:27;;;;;;;2.67;1.80;;;;;;;;;;4940208;28;20083;-86
2023/07/01 11:01:57;;;;;;;5.22;1.90;;;;;;;;;;4922168;29;20031;-86
2023/07/01 11:04:24;;;;;;;4.28;1.90;;;;;;;;;;4921877;29;20510;-86
2023/07/01 11:06:54;;;;;;;4.40;1.85;;;;;;;;;;4929467;29;20490;-86
2023/07/01 11:09:32;;;;;;;2.35;1.90;;;;;;;;;;4951362;29;20087;-91
2023/07/01 11:12:03;;;;;;;3.40;1.95;;;;;;;;;;4926280;29;20122;-90
2023/07/01 11:14:31;;;;;;;4.68;2.17;;;;;;;;;;4921657;29;20028;-91
2023/07/01 11:17:11;;;;;;;4.80;2.17;;;;;;;;;;4940233;29;20083;-89
2023/07/01 11:19:40;;;;;;;5.00;1.63;;;;;;;;;;4941947;29;20102;-88
2023/07/01 11:22:11;;;;;;;1.80;1.60;;;;;;;;;;4956707;28;20028;-90
2023/07/01 11:24:37;;;;;;;2.60;1.70;;;;;;;;;;4938669;28;20035;-89
2023/07/01 11:27:12;;;;;;;3.75;1.80;;;;;;;;;;4944882;29;20031;-89
2023/07/01 11:29:41;;;;;;;3.30;2.10;;;;;;;;;;4940024;29;20612;-89
2023/07/01 11:32:12;;;;;;;3.05;2.00;;;;;;;;;;4939388;29;20517;-88
2023/07/01 11:34:41;;;;;;;5.57;1.80;;;;;;;;;;4936216;29;20028;-89
2023/07/01 11:37:06;;;;;;;3.65;1.85;;;;;;;;;;4924199;29;20039;-88
2023/07/01 11:39:43;;;;;;;5.03;2.05;;;;;;;;;;4935602;29;20024;-89
2023/07/01 11:42:08;;;;;;;3.63;1.83;;;;;;;;;;4937200;29;20027;-89
2023/07/01 11:44:34;;;;;;;2.40;2.20;;;;;;;;;;4929767;29;20028;-89
2023/07/01 11:47:00;;;;;;;3.78;1.95;;;;;;;;;;4941936;29;20027;-89
2023/07/01 11:49:29;;;;;;;4.10;2.08;;;;;;;;;;4938623;28;20034;-88
2023/07/01 11:54:48;;;;;;;2.72;1.67;;;;;;;;;;4954142;28;20114;-87
2023/07/01 11:57:17;;;;;;;3.28;1.85;;;;;;;;;;4946414;28;20620;-89
2023/07/01 11:59:48;;;;;;;2.53;1.80;;;;;;;;;;4923107;29;20122;-88
2023/07/01 12:02:14;;;;;;;2.97;1.90;;;;;;;;;;4923625;29;20027;-89
2023/07/01 12:04:40;;;;;;;3.03;1.83;;;;;;;;;;4940740;29;20027;-89
2023/07/01 12:07:16;;;;;;;3.28;2.00;;;;;;;;;;4925229;29;20035;-88
2023/07/01 12:09:45;;;;;;;7.75;2.38;;;;;;;;;;4937318;29;20051;-88
2023/07/01 12:12:13;;;;;;;2.17;1.40;;;;;;;;;;4942286;29;20022;-88
2023/07/01 12:14:39;;;;;;;2.05;1.70;;;;;;;;;;4937152;29;20016;-88
2023/07/01 12:17:05;;;;;;;4.43;2.15;;;;;;;;;;4921666;29;20072;-89
2023/07/01 12:19:31;;;;;;;1.92;1.67;;;;;;;;;;4939055;29;20048;-89
2023/07/01 12:21:59;;;;;;;3.30;1.92;;;;;;;;;;4939479;29;20027;-88
2023/07/01 12:24:32;;;;;;;2.75;1.70;;;;;;;;;;4938805;29;20031;-89
2023/07/01 12:27:00;;;;;;;4.10;1.92;;;;;;;;;;4936776;29;20063;-88
2023/07/01 12:29:26;;;;;;;2.97;1.60;;;;;;;;;;4916799;29;20079;-88
2023/07/01 12:31:57;;;;;;;3.85;1.80;;;;;;;;;;4933923;29;20027;-87
2023/07/01 12:34:23;;;;;;;1.88;1.48;;;;;;;;;;4919208;29;20038;-89
2023/07/01 12:36:49;;;;;;;2.78;1.60;;;;;;;;;;4938414;29;20031;-90
2023/07/01 12:39:18;;;;;;;1.67;1.58;;;;;;;;;;4941227;29;20023;-89
2023/07/01 12:41:46;;;;;;;2.28;1.58;;;;;;;;;;4926487;29;20075;-89
2023/07/01 12:44:12;;;;;;;3.50;2.00;;;;;;;;;;4920247;29;20020;-87
2023/07/01 12:46:43;;;;;;;3.03;1.80;;;;;;;;;;4919351;29;20128;-87
2023/07/01 12:49:09;;;;;;;3.17;1.58;;;;;;;;;;4954452;29;20109;-85
2023/07/01 12:51:36;;;;;;;2.97;1.60;;;;;;;;;;4937414;29;20028;-88
2023/07/01 12:54:02;;;;;;;4.53;1.60;;;;;;;;;;4957122;29;20038;-87
2023/07/01 12:57:13;;;;;;;2.13;1.40;;;;;;;;;;4941017;29;20019;-85
2023/07/01 12:59:38;;;;;;;3.72;1.48;;;;;;;;;;4939351;29;20079;-86
2023/07/01 13:02:04;;;;;;;1.85;1.40;;;;;;;;;;4937279;29;20032;-85
2023/07/01 13:04:30;;;;;;;2.13;1.50;;;;;;;;;;4936461;29;20039;-86
2023/07/01 13:06:59;;;;;;;4.93;1.85;;;;;;;;;;4919627;29;20042;-85
2023/07/01 13:09:50;;;;;;;2.10;1.58;;;;;;;;;;4920510;29;20023;-85
2023/07/01 13:12:19;;;;;;;3.37;1.60;;;;;;;;;;4922505;29;20032;-87
2023/07/01 13:14:45;;;;;;;3.25;1.67;;;;;;;;;;4939837;29;20387;-86
2023/07/01 13:17:10;;;;;;;3.28;1.73;;;;;;;;;;4939609;29;20537;-87
2023/07/01 13:19:36;;;;;;;1.73;1.40;;;;;;;;;;4939612;29;20034;-86
2023/07/01 13:22:01;;;;;;;3.15;1.60;;;;;;;;;;4938588;29;20028;-86
2023/07/01 13:24:27;;;;;;;2.03;1.40;;;;;;;;;;4921489;29;20430;-86
2023/07/01 13:26:57;;;;;;;1.55;1.40;;;;;;;;;;4938275;29;20078;-86
2023/07/01 13:29:23;;;;;;;2.47;1.50;;;;;;;;;;4938701;29;20032;-88
2023/07/01 13:31:49;;;;;;;2.35;1.45;;;;;;;;;;4938399;29;20097;-86
2023/07/01 13:34:18;;;;;;;2.10;1.67;;;;;;;;;;4938582;29;20031;-86
2023/07/01 13:36:44;;;;;;;2.83;1.60;;;;;;;;;;4944728;29;20011;-86
2023/07/01 13:39:18;;;;;;;1.83;1.30;;;;;;;;;;4950563;29;20031;-86
2023/07/01 13:41:44;;;;;;;5.03;1.80;;;;;;;;;;4930288;29;20490;-87
2023/07/01 13:44:20;;;;;;;2.22;1.42;;;;;;;;;;4921722;29;20030;-85
2023/07/01 13:46:46;;;;;;;5.22;1.52;;;;;;;;;;4938516;28;20110;-86
2023/07/01 13:49:20;;;;;;;2.10;1.20;;;;;;;;;;4939013;29;20629;-87
2023/07/01 13:51:46;;;;;;;4.13;1.42;;;;;;;;;;4921992;29;20058;-88
2023/07/01 13:54:18;;;;;;;2.17;1.42;;;;;;;;;;4921281;29;20423;-87
2023/07/01 13:56:43;;;;;;;1.35;1.25;;;;;;;;;;4918347;29;20024;-85
2023/07/01 13:59:13;;;;;;;2.25;1.30;;;;;;;;;;4919917;29;20082;-86
2023/07/01 14:01:39;;;;;;;1.92;1.10;;;;;;;;;;4937650;29;20442;-87
2023/07/01 14:04:05;;;;;;;2.20;1.30;;;;;;;;;;4921704;29;20023;-85
2023/07/01 14:06:31;;;;;;;1.13;0.93;;;;;;;;;;4921733;29;20091;-85
2023/07/01 14:08:57;;;;;;;4.90;1.45;;;;;;;;;;4955510;29;20023;-87
2023/07/01 14:11:28;;;;;;;1.25;1.15;;;;;;;;;;4941293;29;20082;-86
2023/07/01 14:13:55;;;;;;;0.95;0.90;;;;;;;;;;4941383;29;20020;-85
2023/07/01 14:16:23;;;;;;;0.98;0.90;;;;;;;;;;4958346;29;20454;-85
2023/07/01 14:18:49;;;;;;;6.18;1.10;;;;;;;;;;4940156;29;20118;-86
2023/07/01 14:21:18;;;;;;;1.48;0.90;;;;;;;;;;4956365;28;20086;-86
2023/07/01 14:23:45;;;;;;;1.15;1.05;;;;;;;;;;4941017;29;20030;-86
2023/07/01 14:26:25;;;;;;;1.45;1.02;;;;;;;;;;4956638;28;20027;-85
2023/07/01 14:28:51;;;;;;;1.73;1.17;;;;;;;;;;4957808;28;20051;-86
2023/07/01 14:31:55;;;;;;;3.30;1.10;;;;;;;;;;4956438;29;20457;-85
2023/07/01 14:34:31;;;;;;;1.00;0.90;;;;;;;;;;4928723;29;20041;-85
2023/07/01 14:36:58;;;;;;;2.45;1.10;;;;;;;;;;4956507;29;20477;-85
2023/07/01 14:39:53;;;;;;;1.48;1.17;;;;;;;;;;4956990;28;20375;-85
2023/07/01 14:42:28;;;;;;;2.70;1.38;;;;;;;;;;4937813;29;20110;-86
2023/07/01 14:44:54;;;;;;;2.05;1.08;;;;;;;;;;4937913;29;20479;-86
2023/07/01 14:47:19;;;;;;;1.38;1.08;;;;;;;;;;4920838;29;20035;-86
2023/07/01 14:49:49;;;;;;;2.53;1.08;;;;;;;;;;4923766;29;20052;-86
2023/07/01 14:52:22;;;;;;;0.90;0.90;;;;;;;;;;4938101;29;20394;-85
2023/07/01 14:58:09;;;;;;;1.02;0.90;;;;;;;;;;4955486;29;20030;-86
2023/07/01 15:00:34;;;;;;;1.17;0.90;;;;;;;;;;4939766;29;20545;-86
2023/07/01 15:03:00;;;;;;;2.53;0.93;;;;;;;;;;4939717;29;20035;-86
2023/07/01 15:05:25;;;;;;;6.15;1.20;;;;;;;;;;4940115;29;20027;-86